Time;durP1;ratioP1;P1;durP2;ratioP2;P2;SDS_P1;SDS_P2;PMS_P1;PMS_P2;Temp;Humidity;BMP_temperature;BMP_pressure;BME280_temperature;BME280_humidity;BME280_pressure;Samples;Min_cycle;Max_cycle;Signal;HPM_P1;HPM_P2
2023/05/06 00:01:40;;;;;;;12.60;7.40;;;;;;;10.83;68.02;101556.29;107508;1251;97813;-62
2023/05/06 00:04:09;;;;;;;15.00;9.10;;;;;;;10.79;67.95;101558.17;107551;1254;97896;-59
2023/05/06 00:06:37;;;;;;;14.80;7.90;;;;;;;10.77;68.18;101556.73;107545;1251;111937;-61
2023/05/06 00:09:05;;;;;;;15.90;7.90;;;;;;;10.73;68.18;101554.33;107555;1251;109010;-59
2023/05/06 00:11:33;;;;;;;16.50;8.20;;;;;;;10.67;67.91;101549.76;107536;1251;106254;-60
2023/05/06 00:14:01;;;;;;;18.80;9.00;;;;;;;10.63;68.31;101555.23;107574;1250;97860;-59
2023/05/06 00:16:30;;;;;;;15.70;8.00;;;;;;;10.62;68.34;101552.67;107549;1251;98440;-60
2023/05/06 00:18:59;;;;;;;12.80;7.60;;;;;;;10.58;68.38;101554.42;107603;1251;110673;-60
2023/05/06 00:21:28;;;;;;;20.30;7.90;;;;;;;10.50;68.57;101556.30;107578;1254;110239;-61
2023/05/06 00:23:56;;;;;;;14.50;7.10;;;;;;;10.38;69.02;101559.63;107588;1254;107026;-59
2023/05/06 00:26:24;;;;;;;17.40;7.40;;;;;;;10.29;69.25;101559.92;107571;1251;97729;-60
2023/05/06 00:28:54;;;;;;;14.70;7.00;;;;;;;10.24;69.33;101557.09;107590;1254;97730;-62
2023/05/06 00:31:23;;;;;;;12.60;7.60;;;;;;;10.19;69.97;101553.55;107648;1251;111227;-60
2023/05/06 00:33:52;;;;;;;21.20;8.70;;;;;;;10.11;70.17;101552.48;107570;1254;110026;-58
2023/05/06 00:36:20;;;;;;;13.70;7.40;;;;;;;10.07;70.18;101556.54;107636;1254;108078;-60
2023/05/06 00:38:48;;;;;;;15.50;7.80;;;;;;;10.03;70.58;101557.59;107534;1252;97716;-61
2023/05/06 00:41:17;;;;;;;12.80;7.80;;;;;;;10.00;70.36;101554.95;107592;1254;97991;-60
2023/05/06 00:43:45;;;;;;;12.90;7.60;;;;;;;10.01;70.67;101554.50;107610;1251;110039;-59
2023/05/06 00:46:18;;;;;;;15.30;8.20;;;;;;;10.01;70.76;101555.21;107577;1250;110148;-60
2023/05/06 00:48:47;;;;;;;10.90;6.50;;;;;;;9.96;70.75;101559.70;107579;1253;108812;-61
2023/05/06 00:51:16;;;;;;;15.20;7.40;;;;;;;9.92;70.80;101563.77;107546;1254;97835;-59
2023/05/06 00:53:47;;;;;;;10.10;6.90;;;;;;;9.89;70.81;101564.48;107627;1254;97690;-61
2023/05/06 00:56:17;;;;;;;12.60;7.10;;;;;;;9.82;70.95;101566.23;107649;1254;111564;-61
2023/05/06 00:58:48;;;;;;;16.50;7.10;;;;;;;9.76;70.99;101562.21;107619;1254;110143;-61
2023/05/06 01:01:16;;;;;;;14.10;9.10;;;;;;;9.73;70.81;101560.42;107585;1255;108158;-61
2023/05/06 01:03:45;;;;;;;14.70;7.80;;;;;;;9.72;71.05;101556.23;107644;1251;97809;-60
2023/05/06 01:06:34;;;;;;;13.80;7.60;;;;;;;9.72;71.12;101555.14;107624;1251;98454;-60
2023/05/06 01:09:20;;;;;;;15.10;7.10;;;;;;;9.76;71.19;101558.48;107604;1254;110587;-64
2023/05/06 01:11:51;;;;;;;12.60;7.50;;;;;;;9.74;71.17;101557.89;107522;1251;109436;-59
2023/05/06 01:14:19;;;;;;;15.00;7.80;;;;;;;9.73;71.52;101564.96;107602;1256;109008;-60
2023/05/06 01:16:53;;;;;;;14.30;7.60;;;;;;;9.67;71.16;101563.39;107538;1252;98600;-60
2023/05/06 01:19:37;;;;;;;17.40;8.10;;;;;;;9.66;71.13;101561.80;107580;1251;97716;-61
2023/05/06 01:22:06;;;;;;;12.50;7.80;;;;;;;9.68;71.79;101563.86;107593;1254;112420;-60
2023/05/06 01:24:45;;;;;;;11.70;6.60;;;;;;;9.60;71.42;101561.02;107651;1256;108294;-60
2023/05/06 01:27:15;;;;;;;13.70;7.60;;;;;;;9.53;71.40;101560.11;107582;1253;107708;-61
2023/05/06 01:29:46;;;;;;;16.90;8.30;;;;;;;9.55;71.67;101563.34;107640;1256;97960;-59
2023/05/06 01:32:48;;;;;;;15.30;7.60;;;;;;;9.54;71.36;101564.81;107573;1256;97736;-60
2023/05/06 01:35:40;;;;;;;17.90;7.60;;;;;;;9.52;71.15;101569.10;107668;1251;112669;-60
2023/05/06 01:38:18;;;;;;;13.70;7.80;;;;;;;9.49;71.44;101571.49;107622;1253;110664;-60
2023/05/06 01:40:53;;;;;;;16.00;6.80;;;;;;;9.45;71.46;101566.75;107485;1251;107856;-60
2023/05/06 01:43:25;;;;;;;13.30;7.80;;;;;;;9.41;71.60;101565.94;107523;1254;97776;-60
2023/05/06 01:45:56;;;;;;;15.60;7.50;;;;;;;9.36;71.83;101568.30;107577;1254;97856;-60
2023/05/06 01:48:27;;;;;;;14.00;8.20;;;;;;;9.30;71.72;101568.31;107499;1254;111440;-59
2023/05/06 01:50:56;;;;;;;17.50;7.00;;;;;;;9.28;72.09;101569.56;107559;1251;109678;-60
2023/05/06 01:53:24;;;;;;;14.40;7.80;;;;;;;9.25;71.66;101574.02;107473;1251;107538;-60
2023/05/06 01:55:53;;;;;;;12.40;7.60;;;;;;;9.26;71.64;101574.02;107480;1251;97836;-61
2023/05/06 01:58:21;;;;;;;14.80;8.30;;;;;;;9.26;71.89;101574.17;107482;1251;97840;-60
2023/05/06 02:00:49;;;;;;;14.60;8.20;;;;;;;9.24;71.87;101578.95;107440;1251;110975;-61
2023/05/06 02:03:18;;;;;;;21.30;7.60;;;;;;;9.21;71.86;101580.60;107482;1251;109831;-60
2023/05/06 02:05:47;;;;;;;13.20;7.40;;;;;;;9.20;71.98;101585.99;107655;1251;108858;-59
2023/05/06 02:08:15;;;;;;;14.50;7.10;;;;;;;9.19;71.91;101583.02;107479;1254;97807;-60
2023/05/06 02:10:45;;;;;;;14.50;7.70;;;;;;;9.16;71.92;101585.95;107561;1253;97700;-61
2023/05/06 02:13:14;;;;;;;12.10;8.00;;;;;;;9.13;71.83;101586.52;107649;1251;111205;-60
2023/05/06 02:15:42;;;;;;;19.70;11.10;;;;;;;9.10;71.77;101592.63;107498;1251;109555;-58
2023/05/06 02:18:15;;;;;;;18.60;8.30;;;;;;;9.08;71.98;101588.46;107479;1251;107968;-61
2023/05/06 02:20:43;;;;;;;18.80;8.70;;;;;;;9.06;71.87;101586.09;107461;1251;97802;-60
2023/05/06 02:23:14;;;;;;;14.40;8.60;;;;;;;9.05;71.86;101585.85;107538;1251;98379;-59
2023/05/06 02:25:43;;;;;;;13.10;7.60;;;;;;;9.03;72.27;101591.69;107543;1251;111760;-58
2023/05/06 02:28:13;;;;;;;15.30;7.70;;;;;;;8.98;72.14;101588.63;107494;1254;109670;-59
2023/05/06 02:30:42;;;;;;;13.30;7.50;;;;;;;8.96;72.09;101586.59;107505;1251;108150;-60
2023/05/06 02:33:11;;;;;;;14.70;7.80;;;;;;;8.92;72.15;101586.89;107518;1251;97838;-60
2023/05/06 02:35:39;;;;;;;22.20;8.70;;;;;;;8.86;72.20;101594.44;107454;1251;98443;-61
2023/05/06 02:38:09;;;;;;;15.80;8.00;;;;;;;8.86;72.31;101599.11;107449;1251;112348;-60
2023/05/06 02:40:37;;;;;;;16.40;8.10;;;;;;;8.85;72.24;101600.26;107470;1254;109648;-60
2023/05/06 02:43:06;;;;;;;16.50;7.10;;;;;;;8.84;72.25;101606.76;107549;1250;108033;-59
2023/05/06 02:45:34;;;;;;;15.00;8.40;;;;;;;8.83;72.37;101605.92;107510;1251;97794;-60
2023/05/06 02:48:05;;;;;;;18.30;8.90;;;;;;;8.80;72.41;101605.94;107460;1254;98348;-60
2023/05/06 02:50:36;;;;;;;14.20;7.50;;;;;;;8.76;72.48;101608.67;107458;1254;111601;-61
2023/05/06 02:53:04;;;;;;;13.70;7.10;;;;;;;8.73;72.37;101612.51;107507;1251;109887;-60
2023/05/06 02:55:33;;;;;;;17.20;7.60;;;;;;;8.68;72.61;101609.94;107543;1251;107512;-59
2023/05/06 02:58:02;;;;;;;14.10;7.50;;;;;;;8.67;72.82;101609.10;107493;1254;97698;-61
2023/05/06 03:00:30;;;;;;;16.20;7.80;;;;;;;8.66;72.67;101610.13;107600;1256;97708;-61
2023/05/06 03:02:58;;;;;;;14.90;8.10;;;;;;;8.62;72.66;101611.58;107543;1251;111473;-59
2023/05/06 03:05:27;;;;;;;14.30;7.60;;;;;;;8.63;72.93;101609.23;107533;1251;109546;-60
2023/05/06 03:07:55;;;;;;;12.10;7.80;;;;;;;8.62;72.88;101611.63;107507;1251;108124;-60
2023/05/06 03:10:24;;;;;;;12.90;8.20;;;;;;;8.59;73.15;101615.04;107513;1251;97813;-59
2023/05/06 03:12:52;;;;;;;13.50;8.00;;;;;;;8.58;73.14;101618.13;107596;1251;98094;-59
2023/05/06 03:15:24;;;;;;;19.10;7.70;;;;;;;8.57;73.31;101618.02;107633;1251;110328;-58
2023/05/06 03:17:54;;;;;;;17.60;8.00;;;;;;;8.55;73.31;101619.63;107494;1251;110048;-59
2023/05/06 03:20:23;;;;;;;12.10;7.50;;;;;;;8.53;73.30;101619.74;107563;1251;107331;-60
2023/05/06 03:22:55;;;;;;;11.70;7.20;;;;;;;8.53;73.40;101623.13;107521;1251;97820;-59
2023/05/06 03:25:23;;;;;;;11.40;7.10;;;;;;;8.56;73.56;101622.77;107747;1251;97867;-58
2023/05/06 03:27:52;;;;;;;12.60;7.90;;;;;;;8.58;73.38;101626.34;107646;1251;111424;-60
2023/05/06 03:30:22;;;;;;;14.80;8.40;;;;;;;8.60;73.46;101631.21;107475;1251;109883;-60
2023/05/06 03:32:55;;;;;;;11.20;7.50;;;;;;;8.62;73.41;101635.57;107556;1251;108277;-60
2023/05/06 03:35:29;;;;;;;12.30;8.60;;;;;;;8.64;73.50;101634.73;107512;1251;97873;-60
2023/05/06 03:37:59;;;;;;;18.00;8.00;;;;;;;8.65;73.53;101634.31;107506;1251;97707;-58
2023/05/06 03:40:33;;;;;;;13.90;8.80;;;;;;;8.67;73.54;101635.41;107503;1251;111053;-58
2023/05/06 03:43:02;;;;;;;14.50;7.80;;;;;;;8.71;73.63;101633.55;107544;1251;109053;-60
2023/05/06 03:45:30;;;;;;;19.10;8.60;;;;;;;8.75;73.58;101638.99;107526;1251;107666;-61
2023/05/06 03:48:00;;;;;;;16.50;8.10;;;;;;;8.80;73.75;101645.14;107528;1253;97761;-59
2023/05/06 03:50:31;;;;;;;11.90;7.80;;;;;;;8.81;73.69;101647.89;107492;1251;97825;-60
2023/05/06 03:52:59;;;;;;;17.30;8.50;;;;;;;8.84;73.76;101653.59;107558;1251;111334;-60
2023/05/06 03:55:29;;;;;;;16.50;8.50;;;;;;;8.89;73.84;101652.58;107616;1256;109613;-60
2023/05/06 03:57:58;;;;;;;17.50;8.80;;;;;;;8.96;73.74;101651.41;107559;1251;107594;-60
2023/05/06 04:00:26;;;;;;;18.20;8.40;;;;;;;9.02;73.64;101652.19;107484;1251;98375;-62
2023/05/06 04:02:55;;;;;;;20.80;8.70;;;;;;;9.08;73.63;101655.75;107559;1254;98535;-60
2023/05/06 04:05:31;;;;;;;16.90;8.00;;;;;;;9.14;73.74;101663.06;107557;1254;112316;-60
2023/05/06 04:08:01;;;;;;;14.10;8.70;;;;;;;9.19;73.62;101662.00;107515;1251;108706;-60
2023/05/06 04:10:30;;;;;;;15.50;9.00;;;;;;;9.24;73.66;101663.95;107564;1251;107338;-60
2023/05/06 04:13:03;;;;;;;14.20;9.00;;;;;;;9.33;73.79;101661.08;107484;1251;97908;-59
2023/05/06 04:15:37;;;;;;;20.90;9.30;;;;;;;9.41;73.92;101664.42;107599;1254;97844;-59
2023/05/06 04:18:07;;;;;;;19.30;10.10;;;;;;;9.45;73.98;101665.91;107599;1256;110622;-62
2023/05/06 04:20:37;;;;;;;18.90;10.10;;;;;;;9.52;74.06;101666.37;107556;1251;109440;-59
2023/05/06 04:23:06;;;;;;;22.70;11.60;;;;;;;9.56;74.28;101669.70;107540;1251;107764;-59
2023/05/06 04:25:36;;;;;;;27.00;12.00;;;;;;;9.59;74.87;101678.25;107606;1250;97902;-59
2023/05/06 04:28:05;;;;;;;23.60;12.20;;;;;;;9.55;74.50;101677.09;107580;1251;97856;-59
2023/05/06 04:30:34;;;;;;;26.20;11.60;;;;;;;9.58;74.24;101679.39;107540;1251;111267;-60
2023/05/06 04:33:03;;;;;;;33.90;12.00;;;;;;;9.64;74.62;101685.02;107569;1250;110727;-59
2023/05/06 04:35:32;;;;;;;27.20;12.60;;;;;;;9.67;74.71;101686.83;107621;1250;107423;-60
2023/05/06 04:38:02;;;;;;;22.90;12.30;;;;;;;9.68;74.70;101687.06;107522;1251;97810;-61
2023/05/06 04:40:33;;;;;;;31.50;14.30;;;;;;;9.71;74.56;101687.19;107615;1251;97900;-61
2023/05/06 04:43:03;;;;;;;30.10;12.20;;;;;;;9.79;74.39;101689.74;107551;1251;111167;-59
2023/05/06 04:45:33;;;;;;;20.90;11.20;;;;;;;9.89;74.43;101688.09;107648;1254;109658;-60
2023/05/06 04:48:02;;;;;;;25.80;12.00;;;;;;;9.98;74.58;101689.98;107567;1250;108200;-60
2023/05/06 04:50:31;;;;;;;31.10;10.60;;;;;;;10.03;74.33;101693.56;107622;1251;97816;-60
2023/05/06 04:53:00;;;;;;;22.10;10.20;;;;;;;10.14;74.13;101699.08;107647;1254;98333;-61
2023/05/06 04:55:28;;;;;;;13.40;7.90;;;;;;;10.23;73.88;101697.93;107664;1251;111790;-59
2023/05/06 04:57:57;;;;;;;22.30;9.10;;;;;;;10.28;73.55;101695.38;107620;1251;109075;-63
2023/05/06 05:00:26;;;;;;;26.00;8.40;;;;;;;10.31;73.17;101697.70;107595;1256;106734;-61
2023/05/06 05:02:54;;;;;;;21.50;9.80;;;;;;;10.35;73.08;101692.52;107527;1254;97928;-59
2023/05/06 05:05:27;;;;;;;17.30;8.20;;;;;;;10.45;73.35;101694.39;107665;1251;97840;-59
2023/05/06 05:07:56;;;;;;;17.60;8.90;;;;;;;10.54;73.58;101690.85;107634;1251;111939;-60
2023/05/06 05:10:25;;;;;;;28.40;9.60;;;;;;;10.61;73.54;101694.64;107600;1251;109176;-59
2023/05/06 05:12:54;;;;;;;20.10;8.70;;;;;;;10.69;73.54;101694.00;107623;1251;107823;-59
2023/05/06 05:15:23;;;;;;;18.70;9.00;;;;;;;10.74;73.35;101691.69;107618;1251;97930;-59
2023/05/06 05:17:52;;;;;;;22.90;8.90;;;;;;;10.82;73.33;101696.09;107637;1251;98329;-59
2023/05/06 05:20:23;;;;;;;16.80;7.40;;;;;;;10.90;73.27;101695.74;107563;1251;112289;-61
2023/05/06 05:22:51;;;;;;;24.00;8.20;;;;;;;10.96;73.22;101690.75;107594;1250;108739;-59
2023/05/06 05:25:20;;;;;;;19.70;7.80;;;;;;;11.03;72.96;101693.52;107605;1251;107353;-60
2023/05/06 05:27:49;;;;;;;14.70;7.90;;;;;;;11.10;73.00;101695.82;107573;1251;97866;-60
2023/05/06 05:30:18;;;;;;;16.90;8.00;;;;;;;11.16;72.68;101694.51;107513;1251;97742;-62
2023/05/06 05:32:47;;;;;;;19.60;7.50;;;;;;;11.21;72.49;101697.37;107549;1251;111323;-59
2023/05/06 05:35:16;;;;;;;16.20;7.60;;;;;;;11.30;72.60;101695.23;107598;1254;109572;-61
2023/05/06 05:37:46;;;;;;;15.70;7.00;;;;;;;11.39;72.32;101699.38;107613;1252;108125;-60
2023/05/06 05:40:14;;;;;;;13.20;6.80;;;;;;;11.46;71.90;101700.08;107505;1252;97837;-61
2023/05/06 05:42:43;;;;;;;21.60;7.40;;;;;;;11.55;71.91;101705.09;107647;1253;97826;-60
2023/05/06 05:45:21;;;;;;;14.40;6.40;;;;;;;11.66;71.52;101706.65;107579;1254;111804;-61
2023/05/06 05:47:52;;;;;;;20.40;7.30;;;;;;;11.73;71.06;101710.59;107613;1254;109825;-59
2023/05/06 05:50:22;;;;;;;16.20;7.60;;;;;;;11.79;70.54;101710.49;107625;1251;107675;-59
2023/05/06 05:52:51;;;;;;;17.30;8.60;;;;;;;11.85;70.22;101710.92;107446;1251;97999;-61
2023/05/06 05:55:20;;;;;;;20.60;11.00;;;;;;;11.89;69.66;101709.64;107635;1251;97780;-60
2023/05/06 05:57:49;;;;;;;18.40;8.50;;;;;;;11.93;69.19;101706.34;107502;1251;110322;-61
2023/05/06 06:00:19;;;;;;;16.80;6.00;;;;;;;11.98;68.96;101708.67;107599;1251;109487;-62
2023/05/06 06:02:47;;;;;;;13.10;6.10;;;;;;;12.04;68.51;101706.39;107545;1254;107097;-59
2023/05/06 06:05:19;;;;;;;11.10;5.90;;;;;;;12.08;67.96;101705.69;107645;1250;97858;-60
2023/05/06 06:07:47;;;;;;;11.50;5.20;;;;;;;12.13;67.57;101706.16;107480;1254;98369;-59
2023/05/06 06:10:16;;;;;;;17.10;5.10;;;;;;;12.18;67.50;101705.27;107416;1253;111302;-61
2023/05/06 06:12:45;;;;;;;23.60;5.30;;;;;;;12.23;67.07;101706.71;107549;1252;109330;-59
2023/05/06 06:15:17;;;;;;;7.50;4.50;;;;;;;12.27;66.32;101706.33;107559;1254;107029;-62
2023/05/06 06:17:46;;;;;;;11.80;4.30;;;;;;;12.32;66.35;101705.90;107526;1254;97864;-59
2023/05/06 06:20:14;;;;;;;23.40;4.80;;;;;;;12.38;65.27;101707.43;107399;1254;98296;-60
2023/05/06 06:22:43;;;;;;;11.30;3.50;;;;;;;12.45;64.43;101707.20;107395;1252;110668;-62
2023/05/06 06:25:11;;;;;;;13.40;3.90;;;;;;;12.50;63.95;101709.83;107391;1253;109358;-61
2023/05/06 06:27:40;;;;;;;7.30;3.60;;;;;;;12.57;63.21;101708.55;107565;1254;108642;-61
2023/05/06 06:30:10;;;;;;;7.20;3.20;;;;;;;12.66;62.25;101711.66;107436;1254;97807;-60
2023/05/06 06:32:48;;;;;;;10.30;3.50;;;;;;;12.77;61.12;101713.44;107587;1253;98460;-61
2023/05/06 06:35:16;;;;;;;7.50;3.70;;;;;;;12.87;61.28;101714.77;107507;1254;110247;-60
2023/05/06 06:37:46;;;;;;;10.00;3.60;;;;;;;12.95;60.72;101713.21;107550;1255;109076;-60
2023/05/06 06:40:16;;;;;;;14.50;3.80;;;;;;;13.04;59.14;101713.55;107461;1256;107132;-64
2023/05/06 06:42:45;;;;;;;8.90;3.30;;;;;;;13.15;59.72;101712.99;107496;1254;97889;-59
2023/05/06 06:45:49;;;;;;;8.40;3.30;;;;;;;13.28;59.05;101712.81;107501;1255;97727;-60
2023/05/06 06:48:18;;;;;;;13.40;3.10;;;;;;;13.36;59.07;101713.19;107467;1254;110498;-63
2023/05/06 06:50:46;;;;;;;15.90;6.50;;;;;;;13.45;58.85;101711.73;107488;1251;108070;-61
2023/05/06 06:53:15;;;;;;;13.30;3.90;;;;;;;13.53;58.39;101713.36;107483;1256;108209;-61
2023/05/06 06:55:45;;;;;;;13.60;3.60;;;;;;;13.62;58.48;101713.67;107595;1251;97804;-60
2023/05/06 06:58:13;;;;;;;10.00;3.60;;;;;;;13.73;57.59;101712.39;107507;1251;98385;-61
2023/05/06 07:00:44;;;;;;;8.80;3.30;;;;;;;13.84;54.70;101703.16;107612;1251;111751;-65
2023/05/06 07:03:18;;;;;;;10.20;3.30;;;;;;;13.95;54.82;101710.30;107566;1251;110039;-64
2023/05/06 07:05:47;;;;;;;12.10;3.10;;;;;;;14.04;54.73;101714.20;107581;1251;107296;-61
2023/05/06 07:08:15;;;;;;;8.70;2.60;;;;;;;14.13;54.32;101712.13;107574;1251;97839;-61
2023/05/06 07:10:44;;;;;;;5.80;2.80;;;;;;;14.22;54.27;101713.52;107729;1251;97710;-61
2023/05/06 07:13:13;;;;;;;11.10;3.40;;;;;;;14.31;53.13;101709.45;107519;1250;111945;-61
2023/05/06 07:15:41;;;;;;;16.50;3.30;;;;;;;14.42;52.94;101710.82;107596;1251;108982;-62
2023/05/06 07:18:10;;;;;;;10.10;3.10;;;;;;;14.52;53.25;101710.65;107558;1251;108670;-61
2023/05/06 07:20:38;;;;;;;7.60;2.80;;;;;;;14.65;51.02;101702.29;107517;1251;97810;-61
2023/05/06 07:23:07;;;;;;;11.20;2.50;;;;;;;14.77;51.44;101705.23;107539;1254;97897;-60
2023/05/06 07:25:35;;;;;;;7.30;2.90;;;;;;;14.83;51.67;101706.25;107561;1253;111558;-61
2023/05/06 07:28:04;;;;;;;7.30;3.20;;;;;;;14.89;51.08;101703.71;107575;1254;109172;-61
2023/05/06 07:30:33;;;;;;;10.30;2.90;;;;;;;14.95;51.29;101706.98;107615;1251;108693;-61
2023/05/06 07:33:01;;;;;;;8.40;2.60;;;;;;;15.05;50.65;101708.09;107543;1253;97800;-59
2023/05/06 07:35:30;;;;;;;15.30;3.20;;;;;;;15.14;50.40;101707.40;107722;1251;98452;-62
2023/05/06 07:37:58;;;;;;;11.80;2.80;;;;;;;15.26;50.24;101708.98;107601;1251;111288;-61
2023/05/06 07:40:27;;;;;;;13.40;3.00;;;;;;;15.38;50.38;101711.81;107612;1251;108570;-61
2023/05/06 07:42:56;;;;;;;11.10;2.60;;;;;;;15.47;49.74;101715.48;107578;1251;107288;-61
2023/05/06 07:45:25;;;;;;;6.00;2.30;;;;;;;15.57;49.44;101714.65;107553;1251;97832;-60
2023/05/06 07:47:53;;;;;;;6.10;2.80;;;;;;;15.63;48.77;101716.35;107552;1250;97831;-61
2023/05/06 07:50:22;;;;;;;4.00;2.30;;;;;;;15.70;48.39;101718.79;107518;1250;113818;-62
2023/05/06 07:52:51;;;;;;;4.50;2.00;;;;;;;15.77;47.98;101714.11;107556;1254;109748;-61
2023/05/06 07:55:19;;;;;;;17.70;3.00;;;;;;;15.86;47.92;101712.73;107598;1251;107684;-61
2023/05/06 07:57:49;;;;;;;7.70;3.00;;;;;;;15.97;47.65;101711.56;107397;1251;98094;-62
2023/05/06 08:00:18;;;;;;;5.40;2.40;;;;;;;16.07;47.69;101714.14;107005;1256;719362;-61
2023/05/06 08:02:47;;;;;;;8.80;2.20;;;;;;;16.18;47.99;101710.08;107568;1253;111911;-64
2023/05/06 08:05:17;;;;;;;10.90;2.60;;;;;;;16.30;47.05;101703.46;107524;1254;110216;-61
2023/05/06 08:07:45;;;;;;;10.40;3.20;;;;;;;16.40;46.36;101705.35;107485;1253;108346;-62
2023/05/06 08:10:13;;;;;;;5.80;1.80;;;;;;;16.47;45.67;101708.89;107471;1254;97716;-61
2023/05/06 08:12:42;;;;;;;2.60;1.60;;;;;;;16.54;43.68;101708.73;107615;1255;98341;-61
2023/05/06 08:15:10;;;;;;;4.30;2.00;;;;;;;16.63;43.96;101702.58;107553;1253;112021;-60
2023/05/06 08:17:39;;;;;;;6.60;2.60;;;;;;;16.74;43.29;101708.20;107535;1252;109717;-60
2023/05/06 08:20:08;;;;;;;17.10;2.40;;;;;;;16.86;42.93;101711.14;107516;1251;107657;-62
2023/05/06 08:22:36;;;;;;;10.20;2.60;;;;;;;16.96;43.05;101708.92;107528;1253;97759;-61
2023/05/06 08:25:06;;;;;;;10.80;2.50;;;;;;;17.08;43.54;101711.27;107595;1250;97825;-61
2023/05/06 08:27:35;;;;;;;3.40;2.40;;;;;;;17.24;43.78;101707.02;107556;1254;111860;-60
2023/05/06 08:30:04;;;;;;;5.20;2.20;;;;;;;17.38;43.30;101710.05;107542;1251;109833;-60
2023/05/06 08:32:33;;;;;;;10.00;3.00;;;;;;;17.49;42.54;101713.48;107627;1251;107075;-59
2023/05/06 08:35:01;;;;;;;11.60;2.10;;;;;;;17.58;41.74;101711.84;107578;1251;97826;-61
2023/05/06 08:37:30;;;;;;;10.10;2.80;;;;;;;17.68;42.53;101709.52;107578;1251;97708;-60
2023/05/06 08:39:58;;;;;;;6.70;1.70;;;;;;;17.87;42.12;101714.96;107569;1253;111843;-61
2023/05/06 08:42:29;;;;;;;6.50;1.60;;;;;;;18.08;41.74;101707.80;107521;1254;110406;-61
2023/05/06 08:44:58;;;;;;;10.60;1.90;;;;;;;18.29;41.06;101707.00;107577;1254;108598;-60
2023/05/06 08:47:26;;;;;;;10.30;2.10;;;;;;;18.50;41.04;101707.55;107557;1254;97830;-59
2023/05/06 08:49:55;;;;;;;12.40;1.40;;;;;;;18.68;38.08;101710.14;107557;1251;98458;-59
2023/05/06 08:52:23;;;;;;;2.10;1.30;;;;;;;18.86;38.52;101705.99;107582;1251;111555;-63
2023/05/06 08:54:59;;;;;;;12.50;1.60;;;;;;;19.10;35.55;101707.23;107588;1251;110170;-60
2023/05/06 08:57:32;;;;;;;13.20;1.90;;;;;;;19.27;34.56;101709.55;107513;1255;108171;-60
2023/05/06 09:00:01;;;;;;;8.50;1.30;;;;;;;19.44;33.83;101701.65;107569;1254;97693;-62
2023/05/06 09:02:30;;;;;;;11.20;1.80;;;;;;;19.64;34.17;101707.53;107560;1254;97915;-59
2023/05/06 09:04:59;;;;;;;7.20;1.30;;;;;;;19.87;35.06;101705.17;107584;1251;113236;-61
2023/05/06 09:07:27;;;;;;;9.70;1.50;;;;;;;20.08;33.89;101695.87;107566;1251;108975;-62
2023/05/06 09:09:56;;;;;;;10.60;1.70;;;;;;;20.26;33.07;101694.05;107533;1257;108189;-63
2023/05/06 09:12:25;;;;;;;9.60;1.20;;;;;;;20.45;32.58;101697.00;107596;1253;97818;-63
2023/05/06 09:14:54;;;;;;;4.20;0.90;;;;;;;20.67;31.05;101698.17;107648;1251;97713;-60
2023/05/06 09:17:30;;;;;;;20.40;1.60;;;;;;;20.90;30.12;101695.36;107613;1250;111807;-61
2023/05/06 09:19:59;;;;;;;10.70;1.20;;;;;;;21.20;30.09;101693.96;107579;1251;110499;-60
2023/05/06 09:22:30;;;;;;;3.90;1.50;;;;;;;21.58;29.75;101690.58;107582;1251;106390;-63
2023/05/06 09:25:01;;;;;;;1.40;0.90;;;;;;;22.04;29.22;101689.78;107651;1251;97801;-66
2023/05/06 09:27:33;;;;;;;4.00;1.40;;;;;;;22.49;29.05;101688.63;107620;1251;98457;-62
2023/05/06 09:30:08;;;;;;;6.40;1.90;;;;;;;22.94;28.54;101683.87;107587;1250;110915;-65
2023/05/06 09:32:40;;;;;;;2.10;0.90;;;;;;;23.38;27.69;101676.97;107634;1251;109252;-65
2023/05/06 09:35:10;;;;;;;9.60;1.20;;;;;;;23.71;27.16;101678.90;107601;1251;107829;-64
2023/05/06 09:37:41;;;;;;;9.40;1.00;;;;;;;24.10;27.65;101683.86;107619;1251;97915;-61
2023/05/06 09:40:10;;;;;;;9.30;1.50;;;;;;;24.58;27.64;101679.05;107624;1253;97838;-61
2023/05/06 09:42:38;;;;;;;5.90;1.30;;;;;;;25.07;26.56;101680.96;107608;1254;112552;-60
2023/05/06 09:45:07;;;;;;;11.50;1.20;;;;;;;25.55;27.06;101680.75;107573;1254;109903;-61
2023/05/06 09:47:38;;;;;;;3.30;1.30;;;;;;;26.07;27.04;101682.48;107580;1253;107117;-60
2023/05/06 09:50:08;;;;;;;11.00;1.30;;;;;;;26.43;25.17;101680.44;107533;1251;97686;-60
2023/05/06 09:52:36;;;;;;;24.20;2.10;;;;;;;26.72;23.83;101679.05;107636;1251;97713;-61
2023/05/06 09:55:06;;;;;;;7.30;1.10;;;;;;;26.99;23.65;101679.91;107617;1251;112058;-60
2023/05/06 09:57:36;;;;;;;4.20;1.50;;;;;;;27.17;22.77;101676.75;107646;1251;109108;-62
2023/05/06 10:00:11;;;;;;;11.40;1.00;;;;;;;27.26;23.45;101675.73;107589;1251;106896;-61
2023/05/06 10:02:43;;;;;;;18.80;1.50;;;;;;;27.68;22.80;101673.73;107601;1250;97832;-60
2023/05/06 10:05:12;;;;;;;7.60;0.90;;;;;;;28.12;21.24;101667.55;107602;1254;97816;-62
2023/05/06 10:07:42;;;;;;;8.90;1.50;;;;;;;28.55;21.76;101665.11;107555;1254;112615;-61
2023/05/06 10:10:10;;;;;;;2.90;0.80;;;;;;;28.94;20.04;101671.39;107515;1254;109784;-61
2023/05/06 10:12:39;;;;;;;1.90;0.90;;;;;;;29.13;21.05;101671.58;107566;1252;107741;-60
2023/05/06 10:15:08;;;;;;;1.40;0.80;;;;;;;29.61;21.31;101669.09;107561;1256;98001;-64
2023/05/06 10:17:40;;;;;;;7.60;1.20;;;;;;;30.13;20.57;101664.16;107445;1257;97816;-60
2023/05/06 10:20:12;;;;;;;5.80;1.30;;;;;;;30.53;19.59;101660.95;107586;1255;111310;-61
2023/05/06 10:22:48;;;;;;;9.70;1.60;;;;;;;30.92;20.61;101657.33;107630;1251;108125;-61
2023/05/06 10:25:37;;;;;;;7.20;1.20;;;;;;;31.41;19.68;101651.55;107633;1252;108620;-62
2023/05/06 10:28:08;;;;;;;14.90;1.80;;;;;;;31.67;17.98;101646.11;107585;1254;97838;-62
2023/05/06 10:30:57;;;;;;;7.10;1.40;;;;;;;31.61;17.98;101646.29;107642;1251;97800;-62
2023/05/06 10:33:27;;;;;;;4.90;1.00;;;;;;;31.58;18.33;101643.95;107649;1251;111168;-62
2023/05/06 10:36:09;;;;;;;8.20;1.00;;;;;;;31.78;17.66;101637.58;107711;1251;109575;-61
2023/05/06 10:38:45;;;;;;;3.40;1.00;;;;;;;31.63;17.10;101638.02;107521;1254;107752;-61
2023/05/06 10:41:13;;;;;;;1.00;0.80;;;;;;;31.66;18.15;101628.61;107522;1252;98031;-65
2023/05/06 10:43:44;;;;;;;3.00;1.00;;;;;;;32.07;17.70;101628.57;107633;1251;98353;-64
2023/05/06 10:46:16;;;;;;;4.90;1.20;;;;;;;31.90;17.40;101634.98;107671;1256;110095;-60
2023/05/06 10:49:03;;;;;;;;;;;;;;;30.88;18.85;101633.31;107614;1251;109225;-63
2023/05/06 10:51:35;;;;;;;7.60;2.50;;;;;;;30.09;18.55;101635.55;107625;1251;105816;-64
2023/05/06 10:54:17;;;;;;;2.80;1.10;;;;;;;30.35;18.26;101628.58;107574;1254;97796;-62
2023/05/06 10:56:48;;;;;;;3.70;1.30;;;;;;;30.59;18.00;101626.14;107573;1252;97701;-62
2023/05/06 10:59:22;;;;;;;6.00;1.60;;;;;;;31.17;18.35;101627.05;107540;1254;111790;-67
2023/05/06 11:02:08;;;;;;;10.40;1.50;;;;;;;31.73;17.76;101619.63;107611;1254;109872;-60
2023/05/06 11:04:36;;;;;;;4.10;1.20;;;;;;;32.20;17.03;101619.10;107666;1251;107069;-64
2023/05/06 11:07:20;;;;;;;5.10;0.70;;;;;;;32.64;17.56;101618.33;107582;1251;97716;-63
2023/05/06 11:10:06;;;;;;;9.00;1.20;;;;;;;33.02;16.26;101615.76;107576;1254;97822;-64
2023/05/06 11:12:54;;;;;;;13.70;1.10;;;;;;;33.52;16.33;101617.23;107638;1254;112815;-64
2023/05/06 11:15:35;;;;;;;8.50;1.60;;;;;;;33.63;14.05;101616.31;107580;1254;109890;-63
2023/05/06 11:18:23;;;;;;;2.70;0.80;;;;;;;33.33;14.85;101611.45;107601;1250;108557;-61
2023/05/06 11:20:58;;;;;;;1.60;0.70;;;;;;;33.22;14.95;101611.20;107567;1251;97847;-61
2023/05/06 11:23:45;;;;;;;2.10;0.70;;;;;;;33.46;15.44;101604.73;107587;1251;97835;-66
2023/05/06 11:26:14;;;;;;;3.30;0.90;;;;;;;33.98;15.54;101609.70;107617;1254;110908;-62